sensor_id;sensor_type;location;lat;lon;timestamp;P1;durP1;ratioP1;P2;durP2;ratioP2
72584;SDS011;60618;40.084;32.908;2022-11-23T00:04:02;15.98;;;7.75;;
72584;SDS011;60618;40.084;32.908;2022-11-23T00:06:29;12.95;;;5.78;;
72584;SDS011;60618;40.084;32.908;2022-11-23T00:08:57;10.57;;;5.90;;
72584;SDS011;60618;40.084;32.908;2022-11-23T00:11:25;11.93;;;5.20;;
72584;SDS011;60618;40.084;32.908;2022-11-23T00:13:53;18.50;;;7.85;;
72584;SDS011;60618;40.084;32.908;2022-11-23T00:16:21;13.88;;;6.47;;
72584;SDS011;60618;40.084;32.908;2022-11-23T00:18:53;12.63;;;6.20;;
72584;SDS011;60618;40.084;32.908;2022-11-23T00:21:22;14.13;;;6.10;;
72584;SDS011;60618;40.084;32.908;2022-11-23T00:23:49;13.05;;;6.13;;
72584;SDS011;60618;40.084;32.908;2022-11-23T00:26:17;13.43;;;7.30;;
72584;SDS011;60618;40.084;32.908;2022-11-23T00:28:45;17.17;;;8.50;;
72584;SDS011;60618;40.084;32.908;2022-11-23T00:31:12;20.67;;;9.10;;
72584;SDS011;60618;40.084;32.908;2022-11-23T00:33:40;18.37;;;9.17;;
72584;SDS011;60618;40.084;32.908;2022-11-23T00:36:09;19.00;;;9.85;;
72584;SDS011;60618;40.084;32.908;2022-11-23T00:38:38;15.02;;;7.57;;
72584;SDS011;60618;40.084;32.908;2022-11-23T00:41:07;18.95;;;8.35;;
72584;SDS011;60618;40.084;32.908;2022-11-23T00:43:36;14.48;;;6.03;;
72584;SDS011;60618;40.084;32.908;2022-11-23T00:46:11;14.07;;;5.90;;
72584;SDS011;60618;40.084;32.908;2022-11-23T00:48:43;14.85;;;7.30;;
72584;SDS011;60618;40.084;32.908;2022-11-23T00:51:12;11.98;;;5.68;;
72584;SDS011;60618;40.084;32.908;2022-11-23T00:53:44;10.55;;;5.25;;
72584;SDS011;60618;40.084;32.908;2022-11-23T00:56:11;12.52;;;5.43;;
72584;SDS011;60618;40.084;32.908;2022-11-23T00:58:38;14.63;;;7.30;;
72584;SDS011;60618;40.084;32.908;2022-11-23T01:01:09;17.65;;;7.88;;
72584;SDS011;60618;40.084;32.908;2022-11-23T01:03:39;15.82;;;6.10;;
72584;SDS011;60618;40.084;32.908;2022-11-23T01:06:09;15.32;;;7.00;;
72584;SDS011;60618;40.084;32.908;2022-11-23T01:08:38;18.30;;;8.20;;
72584;SDS011;60618;40.084;32.908;2022-11-23T01:11:06;17.03;;;8.00;;
72584;SDS011;60618;40.084;32.908;2022-11-23T01:13:35;15.27;;;7.57;;
72584;SDS011;60618;40.084;32.908;2022-11-23T01:16:04;17.55;;;8.32;;
72584;SDS011;60618;40.084;32.908;2022-11-23T01:18:33;15.23;;;7.95;;
72584;SDS011;60618;40.084;32.908;2022-11-23T01:21:00;21.05;;;9.77;;
72584;SDS011;60618;40.084;32.908;2022-11-23T01:23:27;17.93;;;7.70;;
72584;SDS011;60618;40.084;32.908;2022-11-23T01:25:55;12.30;;;6.60;;
72584;SDS011;60618;40.084;32.908;2022-11-23T01:28:22;16.17;;;6.88;;
72584;SDS011;60618;40.084;32.908;2022-11-23T01:30:49;14.93;;;7.95;;
72584;SDS011;60618;40.084;32.908;2022-11-23T01:33:16;13.02;;;6.53;;
72584;SDS011;60618;40.084;32.908;2022-11-23T01:35:43;11.40;;;5.67;;
72584;SDS011;60618;40.084;32.908;2022-11-23T01:38:10;11.60;;;5.07;;
72584;SDS011;60618;40.084;32.908;2022-11-23T01:40:43;11.05;;;5.32;;
72584;SDS011;60618;40.084;32.908;2022-11-23T01:43:13;9.35;;;4.22;;
72584;SDS011;60618;40.084;32.908;2022-11-23T01:45:58;10.43;;;4.82;;
72584;SDS011;60618;40.084;32.908;2022-11-23T01:48:27;11.07;;;5.27;;
72584;SDS011;60618;40.084;32.908;2022-11-23T01:51:09;11.50;;;5.47;;
72584;SDS011;60618;40.084;32.908;2022-11-23T01:53:39;9.95;;;4.78;;
72584;SDS011;60618;40.084;32.908;2022-11-23T01:56:08;15.13;;;7.10;;
72584;SDS011;60618;40.084;32.908;2022-11-23T01:58:40;12.60;;;6.30;;
72584;SDS011;60618;40.084;32.908;2022-11-23T02:01:10;11.40;;;5.70;;
72584;SDS011;60618;40.084;32.908;2022-11-23T02:03:38;14.30;;;6.20;;
72584;SDS011;60618;40.084;32.908;2022-11-23T02:06:09;10.00;;;5.03;;
72584;SDS011;60618;40.084;32.908;2022-11-23T02:08:39;14.23;;;6.10;;
72584;SDS011;60618;40.084;32.908;2022-11-23T02:11:07;16.40;;;8.10;;
72584;SDS011;60618;40.084;32.908;2022-11-23T02:13:36;18.50;;;7.90;;
72584;SDS011;60618;40.084;32.908;2022-11-23T02:16:03;14.75;;;7.32;;
72584;SDS011;60618;40.084;32.908;2022-11-23T02:18:30;15.75;;;8.52;;
72584;SDS011;60618;40.084;32.908;2022-11-23T02:20:59;20.23;;;8.70;;
72584;SDS011;60618;40.084;32.908;2022-11-23T02:28:35;15.52;;;7.18;;
72584;SDS011;60618;40.084;32.908;2022-11-23T02:31:08;18.70;;;8.27;;
72584;SDS011;60618;40.084;32.908;2022-11-23T02:33:38;18.40;;;8.20;;
72584;SDS011;60618;40.084;32.908;2022-11-23T02:41:46;13.10;;;6.32;;
72584;SDS011;60618;40.084;32.908;2022-11-23T02:47:16;18.35;;;9.20;;
72584;SDS011;60618;40.084;32.908;2022-11-23T02:49:46;20.10;;;10.45;;
72584;SDS011;60618;40.084;32.908;2022-11-23T02:52:14;18.70;;;9.07;;
72584;SDS011;60618;40.084;32.908;2022-11-23T02:54:42;15.15;;;8.13;;
72584;SDS011;60618;40.084;32.908;2022-11-23T02:57:09;14.35;;;6.53;;
72584;SDS011;60618;40.084;32.908;2022-11-23T02:59:36;15.77;;;6.88;;
72584;SDS011;60618;40.084;32.908;2022-11-23T03:02:03;14.88;;;7.13;;
72584;SDS011;60618;40.084;32.908;2022-11-23T03:04:31;13.70;;;6.73;;
72584;SDS011;60618;40.084;32.908;2022-11-23T03:06:58;13.52;;;6.35;;
72584;SDS011;60618;40.084;32.908;2022-11-23T03:09:25;13.98;;;6.53;;
72584;SDS011;60618;40.084;32.908;2022-11-23T03:11:52;18.88;;;8.00;;
72584;SDS011;60618;40.084;32.908;2022-11-23T03:14:19;14.38;;;7.70;;
72584;SDS011;60618;40.084;32.908;2022-11-23T03:16:47;15.90;;;7.50;;
72584;SDS011;60618;40.084;32.908;2022-11-23T03:19:14;13.68;;;6.72;;
72584;SDS011;60618;40.084;32.908;2022-11-23T03:21:41;13.18;;;6.18;;
72584;SDS011;60618;40.084;32.908;2022-11-23T03:24:07;12.15;;;6.30;;
72584;SDS011;60618;40.084;32.908;2022-11-23T03:26:34;11.57;;;4.90;;
72584;SDS011;60618;40.084;32.908;2022-11-23T03:29:01;12.10;;;5.67;;
72584;SDS011;60618;40.084;32.908;2022-11-23T03:31:28;13.15;;;6.45;;
72584;SDS011;60618;40.084;32.908;2022-11-23T03:33:55;11.63;;;6.10;;
72584;SDS011;60618;40.084;32.908;2022-11-23T03:36:22;12.23;;;6.57;;
72584;SDS011;60618;40.084;32.908;2022-11-23T03:38:49;11.55;;;6.55;;
72584;SDS011;60618;40.084;32.908;2022-11-23T03:41:15;12.20;;;5.30;;
72584;SDS011;60618;40.084;32.908;2022-11-23T03:43:42;10.73;;;4.65;;
72584;SDS011;60618;40.084;32.908;2022-11-23T03:46:09;10.88;;;5.28;;
72584;SDS011;60618;40.084;32.908;2022-11-23T03:48:36;13.45;;;6.50;;
72584;SDS011;60618;40.084;32.908;2022-11-23T03:51:03;14.65;;;6.70;;
72584;SDS011;60618;40.084;32.908;2022-11-23T03:53:30;12.70;;;6.23;;
72584;SDS011;60618;40.084;32.908;2022-11-23T03:55:56;15.23;;;7.78;;
72584;SDS011;60618;40.084;32.908;2022-11-23T03:58:23;16.08;;;8.40;;
72584;SDS011;60618;40.084;32.908;2022-11-23T04:00:50;18.83;;;9.05;;
72584;SDS011;60618;40.084;32.908;2022-11-23T04:03:17;19.63;;;9.68;;
72584;SDS011;60618;40.084;32.908;2022-11-23T04:05:44;13.90;;;7.10;;
72584;SDS011;60618;40.084;32.908;2022-11-23T04:08:10;14.75;;;6.57;;
72584;SDS011;60618;40.084;32.908;2022-11-23T04:10:37;13.90;;;6.78;;
72584;SDS011;60618;40.084;32.908;2022-11-23T04:13:04;12.27;;;5.63;;
72584;SDS011;60618;40.084;32.908;2022-11-23T04:15:31;13.15;;;5.53;;
72584;SDS011;60618;40.084;32.908;2022-11-23T04:17:58;18.37;;;8.00;;
72584;SDS011;60618;40.084;32.908;2022-11-23T04:20:25;15.88;;;8.02;;
72584;SDS011;60618;40.084;32.908;2022-11-23T04:22:52;13.15;;;6.30;;
72584;SDS011;60618;40.084;32.908;2022-11-23T04:25:19;15.40;;;8.20;;
72584;SDS011;60618;40.084;32.908;2022-11-23T04:27:46;15.30;;;7.00;;
72584;SDS011;60618;40.084;32.908;2022-11-23T04:30:13;17.60;;;9.30;;
72584;SDS011;60618;40.084;32.908;2022-11-23T04:32:42;16.60;;;8.52;;
72584;SDS011;60618;40.084;32.908;2022-11-23T04:35:10;20.45;;;10.15;;
72584;SDS011;60618;40.084;32.908;2022-11-23T04:37:37;18.42;;;8.38;;
72584;SDS011;60618;40.084;32.908;2022-11-23T04:40:04;16.15;;;8.35;;
72584;SDS011;60618;40.084;32.908;2022-11-23T04:42:31;17.77;;;8.60;;
72584;SDS011;60618;40.084;32.908;2022-11-23T04:44:58;14.40;;;7.60;;
72584;SDS011;60618;40.084;32.908;2022-11-23T04:47:25;18.83;;;9.02;;
72584;SDS011;60618;40.084;32.908;2022-11-23T04:49:52;16.67;;;8.00;;
72584;SDS011;60618;40.084;32.908;2022-11-23T04:52:19;16.02;;;7.65;;
72584;SDS011;60618;40.084;32.908;2022-11-23T04:54:45;18.00;;;8.67;;
72584;SDS011;60618;40.084;32.908;2022-11-23T04:57:12;16.15;;;8.85;;
72584;SDS011;60618;40.084;32.908;2022-11-23T04:59:39;16.75;;;7.88;;
72584;SDS011;60618;40.084;32.908;2022-11-23T05:02:06;15.05;;;7.78;;
72584;SDS011;60618;40.084;32.908;2022-11-23T05:04:33;15.85;;;7.97;;
72584;SDS011;60618;40.084;32.908;2022-11-23T05:07:00;14.23;;;7.97;;
72584;SDS011;60618;40.084;32.908;2022-11-23T05:09:27;15.85;;;7.72;;
72584;SDS011;60618;40.084;32.908;2022-11-23T05:11:54;11.85;;;6.40;;
72584;SDS011;60618;40.084;32.908;2022-11-23T05:14:20;12.48;;;6.22;;
72584;SDS011;60618;40.084;32.908;2022-11-23T05:16:47;14.40;;;7.28;;
72584;SDS011;60618;40.084;32.908;2022-11-23T05:19:14;15.57;;;8.00;;
72584;SDS011;60618;40.084;32.908;2022-11-23T05:21:41;15.80;;;7.55;;
72584;SDS011;60618;40.084;32.908;2022-11-23T05:24:08;16.15;;;6.90;;
72584;SDS011;60618;40.084;32.908;2022-11-23T05:26:35;15.07;;;7.90;;
72584;SDS011;60618;40.084;32.908;2022-11-23T05:29:01;17.20;;;8.50;;
72584;SDS011;60618;40.084;32.908;2022-11-23T05:31:28;16.20;;;8.63;;
72584;SDS011;60618;40.084;32.908;2022-11-23T05:33:55;16.80;;;8.90;;
72584;SDS011;60618;40.084;32.908;2022-11-23T05:36:22;18.15;;;9.85;;
72584;SDS011;60618;40.084;32.908;2022-11-23T05:38:49;35.28;;;13.57;;
72584;SDS011;60618;40.084;32.908;2022-11-23T05:41:16;24.13;;;11.95;;
72584;SDS011;60618;40.084;32.908;2022-11-23T05:43:43;31.33;;;13.67;;
72584;SDS011;60618;40.084;32.908;2022-11-23T05:46:10;21.60;;;9.30;;
72584;SDS011;60618;40.084;32.908;2022-11-23T05:48:36;25.48;;;12.10;;
72584;SDS011;60618;40.084;32.908;2022-11-23T05:51:04;20.13;;;9.30;;
72584;SDS011;60618;40.084;32.908;2022-11-23T05:53:31;24.15;;;12.02;;
72584;SDS011;60618;40.084;32.908;2022-11-23T05:56:00;27.90;;;11.70;;
72584;SDS011;60618;40.084;32.908;2022-11-23T05:58:28;24.38;;;11.68;;
72584;SDS011;60618;40.084;32.908;2022-11-23T06:00:56;27.27;;;12.13;;
72584;SDS011;60618;40.084;32.908;2022-11-23T06:03:24;25.85;;;10.95;;
72584;SDS011;60618;40.084;32.908;2022-11-23T06:05:51;22.83;;;10.90;;
72584;SDS011;60618;40.084;32.908;2022-11-23T06:08:18;23.43;;;11.67;;
72584;SDS011;60618;40.084;32.908;2022-11-23T06:10:45;24.23;;;11.57;;
72584;SDS011;60618;40.084;32.908;2022-11-23T06:13:11;25.05;;;11.60;;
72584;SDS011;60618;40.084;32.908;2022-11-23T06:15:38;19.83;;;9.95;;
72584;SDS011;60618;40.084;32.908;2022-11-23T06:18:05;24.08;;;11.57;;
72584;SDS011;60618;40.084;32.908;2022-11-23T06:20:32;23.33;;;11.37;;
72584;SDS011;60618;40.084;32.908;2022-11-23T06:22:59;21.65;;;10.73;;
72584;SDS011;60618;40.084;32.908;2022-11-23T06:25:26;15.82;;;7.72;;
72584;SDS011;60618;40.084;32.908;2022-11-23T06:27:53;24.77;;;11.27;;
72584;SDS011;60618;40.084;32.908;2022-11-23T06:30:25;24.38;;;12.43;;
72584;SDS011;60618;40.084;32.908;2022-11-23T06:32:52;23.83;;;12.50;;
72584;SDS011;60618;40.084;32.908;2022-11-23T06:35:19;24.20;;;13.05;;
72584;SDS011;60618;40.084;32.908;2022-11-23T06:37:47;33.47;;;13.40;;
72584;SDS011;60618;40.084;32.908;2022-11-23T06:40:15;27.45;;;12.40;;
72584;SDS011;60618;40.084;32.908;2022-11-23T06:42:42;23.45;;;12.90;;
72584;SDS011;60618;40.084;32.908;2022-11-23T06:45:09;30.40;;;13.30;;
72584;SDS011;60618;40.084;32.908;2022-11-23T06:47:36;25.67;;;13.75;;
72584;SDS011;60618;40.084;32.908;2022-11-23T06:50:03;32.60;;;13.73;;
72584;SDS011;60618;40.084;32.908;2022-11-23T06:52:31;28.48;;;13.85;;
72584;SDS011;60618;40.084;32.908;2022-11-23T06:54:58;28.60;;;13.95;;
72584;SDS011;60618;40.084;32.908;2022-11-23T06:57:25;32.50;;;15.13;;
72584;SDS011;60618;40.084;32.908;2022-11-23T06:59:52;36.22;;;14.68;;
72584;SDS011;60618;40.084;32.908;2022-11-23T07:02:18;31.20;;;13.73;;
72584;SDS011;60618;40.084;32.908;2022-11-23T07:04:45;22.85;;;11.38;;
72584;SDS011;60618;40.084;32.908;2022-11-23T07:07:12;22.75;;;11.70;;
72584;SDS011;60618;40.084;32.908;2022-11-23T07:09:39;22.17;;;11.13;;
72584;SDS011;60618;40.084;32.908;2022-11-23T07:12:06;24.40;;;12.07;;
72584;SDS011;60618;40.084;32.908;2022-11-23T07:14:33;27.60;;;12.88;;
72584;SDS011;60618;40.084;32.908;2022-11-23T07:17:00;26.90;;;13.95;;
72584;SDS011;60618;40.084;32.908;2022-11-23T07:19:27;35.15;;;15.75;;
72584;SDS011;60618;40.084;32.908;2022-11-23T07:21:54;36.03;;;17.70;;
72584;SDS011;60618;40.084;32.908;2022-11-23T07:24:21;38.63;;;19.38;;
72584;SDS011;60618;40.084;32.908;2022-11-23T07:26:49;33.03;;;17.63;;
72584;SDS011;60618;40.084;32.908;2022-11-23T07:29:16;32.75;;;16.48;;
72584;SDS011;60618;40.084;32.908;2022-11-23T07:31:43;34.92;;;17.00;;
72584;SDS011;60618;40.084;32.908;2022-11-23T07:34:10;29.07;;;14.17;;
72584;SDS011;60618;40.084;32.908;2022-11-23T07:36:36;32.92;;;16.63;;
72584;SDS011;60618;40.084;32.908;2022-11-23T07:39:04;36.05;;;17.15;;
72584;SDS011;60618;40.084;32.908;2022-11-23T07:41:31;34.60;;;16.60;;
72584;SDS011;60618;40.084;32.908;2022-11-23T07:43:58;33.72;;;15.70;;
72584;SDS011;60618;40.084;32.908;2022-11-23T07:46:25;26.07;;;14.43;;
72584;SDS011;60618;40.084;32.908;2022-11-23T07:48:52;25.73;;;13.40;;
72584;SDS011;60618;40.084;32.908;2022-11-23T07:51:19;28.40;;;14.05;;
72584;SDS011;60618;40.084;32.908;2022-11-23T07:53:46;27.05;;;14.38;;
72584;SDS011;60618;40.084;32.908;2022-11-23T07:56:12;29.48;;;14.68;;
72584;SDS011;60618;40.084;32.908;2022-11-23T07:58:39;29.13;;;14.17;;
72584;SDS011;60618;40.084;32.908;2022-11-23T08:01:06;30.17;;;14.40;;
72584;SDS011;60618;40.084;32.908;2022-11-23T08:03:33;30.08;;;13.70;;
72584;SDS011;60618;40.084;32.908;2022-11-23T08:06:00;25.75;;;13.90;;
72584;SDS011;60618;40.084;32.908;2022-11-23T08:08:27;25.25;;;13.45;;
72584;SDS011;60618;40.084;32.908;2022-11-23T08:10:54;24.83;;;14.27;;
72584;SDS011;60618;40.084;32.908;2022-11-23T08:13:21;28.27;;;14.73;;
72584;SDS011;60618;40.084;32.908;2022-11-23T08:15:48;27.65;;;14.35;;
72584;SDS011;60618;40.084;32.908;2022-11-23T08:18:20;28.13;;;14.38;;
72584;SDS011;60618;40.084;32.908;2022-11-23T08:20:48;29.83;;;14.55;;
72584;SDS011;60618;40.084;32.908;2022-11-23T08:23:15;25.23;;;13.40;;
72584;SDS011;60618;40.084;32.908;2022-11-23T08:25:42;26.33;;;14.27;;
72584;SDS011;60618;40.084;32.908;2022-11-23T08:28:10;26.85;;;14.45;;
72584;SDS011;60618;40.084;32.908;2022-11-23T08:30:37;23.35;;;13.45;;
72584;SDS011;60618;40.084;32.908;2022-11-23T08:33:05;24.40;;;13.63;;
72584;SDS011;60618;40.084;32.908;2022-11-23T08:35:36;23.07;;;12.97;;
72584;SDS011;60618;40.084;32.908;2022-11-23T08:38:05;19.35;;;11.95;;
72584;SDS011;60618;40.084;32.908;2022-11-23T08:40:33;22.42;;;11.40;;
72584;SDS011;60618;40.084;32.908;2022-11-23T08:43:01;18.67;;;11.13;;
72584;SDS011;60618;40.084;32.908;2022-11-23T08:45:29;22.50;;;11.75;;
72584;SDS011;60618;40.084;32.908;2022-11-23T08:47:59;21.33;;;11.73;;
72584;SDS011;60618;40.084;32.908;2022-11-23T08:50:27;20.98;;;12.70;;
72584;SDS011;60618;40.084;32.908;2022-11-23T08:52:55;23.48;;;13.07;;
72584;SDS011;60618;40.084;32.908;2022-11-23T08:55:24;23.55;;;13.02;;
72584;SDS011;60618;40.084;32.908;2022-11-23T08:57:55;25.10;;;14.18;;
72584;SDS011;60618;40.084;32.908;2022-11-23T09:00:23;25.57;;;12.70;;
72584;SDS011;60618;40.084;32.908;2022-11-23T09:02:51;24.88;;;13.48;;
72584;SDS011;60618;40.084;32.908;2022-11-23T09:05:18;25.73;;;13.38;;
72584;SDS011;60618;40.084;32.908;2022-11-23T09:07:45;25.85;;;13.20;;
72584;SDS011;60618;40.084;32.908;2022-11-23T09:10:12;23.38;;;13.20;;
72584;SDS011;60618;40.084;32.908;2022-11-23T09:12:44;24.77;;;13.80;;
72584;SDS011;60618;40.084;32.908;2022-11-23T09:15:12;25.38;;;13.93;;
72584;SDS011;60618;40.084;32.908;2022-11-23T09:17:39;28.23;;;15.52;;
72584;SDS011;60618;40.084;32.908;2022-11-23T09:20:06;29.40;;;15.27;;
72584;SDS011;60618;40.084;32.908;2022-11-23T09:22:33;26.00;;;14.48;;
72584;SDS011;60618;40.084;32.908;2022-11-23T09:25:00;27.97;;;14.97;;
72584;SDS011;60618;40.084;32.908;2022-11-23T09:27:27;26.23;;;14.65;;
72584;SDS011;60618;40.084;32.908;2022-11-23T09:29:54;25.50;;;14.93;;
72584;SDS011;60618;40.084;32.908;2022-11-23T09:32:21;26.75;;;15.32;;
72584;SDS011;60618;40.084;32.908;2022-11-23T09:34:48;29.80;;;15.90;;
72584;SDS011;60618;40.084;32.908;2022-11-23T09:37:15;29.63;;;15.07;;
72584;SDS011;60618;40.084;32.908;2022-11-23T09:39:42;31.90;;;15.63;;
72584;SDS011;60618;40.084;32.908;2022-11-23T09:52:57;26.45;;;14.05;;
72584;SDS011;60618;40.084;32.908;2022-11-23T09:55:40;25.55;;;13.90;;
72584;SDS011;60618;40.084;32.908;2022-11-23T10:26:33;12.50;;;5.85;;
72584;SDS011;60618;40.084;32.908;2022-11-23T10:29:38;12.80;;;6.15;;
72584;SDS011;60618;40.084;32.908;2022-11-23T10:32:00;11.80;;;5.77;;
72584;SDS011;60618;40.084;32.908;2022-11-23T10:37:21;12.82;;;6.00;;
72584;SDS011;60618;40.084;32.908;2022-11-23T10:39:48;11.38;;;5.72;;
72584;SDS011;60618;40.084;32.908;2022-11-23T10:45:17;12.30;;;5.40;;
72584;SDS011;60618;40.084;32.908;2022-11-23T10:47:50;14.15;;;5.40;;
72584;SDS011;60618;40.084;32.908;2022-11-23T10:50:19;10.55;;;4.80;;
72584;SDS011;60618;40.084;32.908;2022-11-23T10:52:56;10.63;;;5.22;;
72584;SDS011;60618;40.084;32.908;2022-11-23T10:55:26;11.73;;;5.50;;
72584;SDS011;60618;40.084;32.908;2022-11-23T10:57:56;10.97;;;5.80;;
72584;SDS011;60618;40.084;32.908;2022-11-23T11:00:25;11.55;;;5.07;;
72584;SDS011;60618;40.084;32.908;2022-11-23T11:02:56;10.27;;;4.00;;
72584;SDS011;60618;40.084;32.908;2022-11-23T11:08:23;9.85;;;4.25;;
72584;SDS011;60618;40.084;32.908;2022-11-23T11:11:23;12.60;;;5.03;;
72584;SDS011;60618;40.084;32.908;2022-11-23T11:13:50;12.77;;;4.72;;
72584;SDS011;60618;40.084;32.908;2022-11-23T11:16:29;12.32;;;5.43;;
72584;SDS011;60618;40.084;32.908;2022-11-23T11:21:56;10.57;;;5.00;;
72584;SDS011;60618;40.084;32.908;2022-11-23T11:24:27;9.03;;;4.70;;
72584;SDS011;60618;40.084;32.908;2022-11-23T11:27:00;7.25;;;3.55;;
72584;SDS011;60618;40.084;32.908;2022-11-23T11:29:38;9.07;;;3.72;;
72584;SDS011;60618;40.084;32.908;2022-11-23T11:32:19;8.77;;;4.13;;
72584;SDS011;60618;40.084;32.908;2022-11-23T11:37:51;7.00;;;2.90;;
72584;SDS011;60618;40.084;32.908;2022-11-23T11:40:32;9.48;;;3.38;;
72584;SDS011;60618;40.084;32.908;2022-11-23T11:46:39;8.95;;;3.40;;
72584;SDS011;60618;40.084;32.908;2022-11-23T11:49:13;9.05;;;3.67;;
72584;SDS011;60618;40.084;32.908;2022-11-23T11:51:48;9.40;;;3.83;;
72584;SDS011;60618;40.084;32.908;2022-11-23T11:57:35;10.20;;;4.18;;
72584;SDS011;60618;40.084;32.908;2022-11-23T12:00:17;10.52;;;4.10;;
72584;SDS011;60618;40.084;32.908;2022-11-23T12:05:43;8.50;;;3.60;;
72584;SDS011;60618;40.084;32.908;2022-11-23T12:08:17;11.55;;;4.38;;
72584;SDS011;60618;40.084;32.908;2022-11-23T12:10:51;12.00;;;4.70;;
72584;SDS011;60618;40.084;32.908;2022-11-23T12:13:20;9.90;;;4.10;;
72584;SDS011;60618;40.084;32.908;2022-11-23T12:24:22;9.30;;;3.72;;
72584;SDS011;60618;40.084;32.908;2022-11-23T12:27:14;7.03;;;3.20;;
72584;SDS011;60618;40.084;32.908;2022-11-23T12:32:36;14.63;;;4.17;;
72584;SDS011;60618;40.084;32.908;2022-11-23T12:41:23;10.63;;;3.60;;
72584;SDS011;60618;40.084;32.908;2022-11-23T12:55:28;9.98;;;4.10;;
72584;SDS011;60618;40.084;32.908;2022-11-23T12:58:05;9.07;;;4.05;;
72584;SDS011;60618;40.084;32.908;2022-11-23T13:01:00;8.50;;;3.80;;
72584;SDS011;60618;40.084;32.908;2022-11-23T13:23:04;13.90;;;4.80;;
72584;SDS011;60618;40.084;32.908;2022-11-23T13:25:31;9.43;;;4.22;;
72584;SDS011;60618;40.084;32.908;2022-11-23T13:28:00;11.70;;;4.30;;
72584;SDS011;60618;40.084;32.908;2022-11-23T13:30:31;14.40;;;4.97;;
72584;SDS011;60618;40.084;32.908;2022-11-23T13:35:53;10.90;;;4.68;;
72584;SDS011;60618;40.084;32.908;2022-11-23T13:38:23;9.88;;;4.85;;
72584;SDS011;60618;40.084;32.908;2022-11-23T13:40:51;9.90;;;4.97;;
72584;SDS011;60618;40.084;32.908;2022-11-23T13:46:10;12.75;;;5.05;;
72584;SDS011;60618;40.084;32.908;2022-11-23T13:48:50;13.27;;;5.68;;
72584;SDS011;60618;40.084;32.908;2022-11-23T13:51:24;13.82;;;6.05;;
72584;SDS011;60618;40.084;32.908;2022-11-23T13:53:56;14.27;;;5.40;;
72584;SDS011;60618;40.084;32.908;2022-11-23T13:56:35;19.02;;;5.32;;
72584;SDS011;60618;40.084;32.908;2022-11-23T14:04:41;15.98;;;5.80;;
72584;SDS011;60618;40.084;32.908;2022-11-23T14:07:57;17.17;;;5.40;;
72584;SDS011;60618;40.084;32.908;2022-11-23T14:10:21;17.23;;;5.35;;
72584;SDS011;60618;40.084;32.908;2022-11-23T14:12:57;25.17;;;6.18;;
72584;SDS011;60618;40.084;32.908;2022-11-23T14:15:30;21.10;;;4.43;;
72584;SDS011;60618;40.084;32.908;2022-11-23T14:33:50;21.87;;;5.10;;
72584;SDS011;60618;40.084;32.908;2022-11-23T14:41:39;21.27;;;4.25;;
72584;SDS011;60618;40.084;32.908;2022-11-23T14:44:07;20.00;;;5.13;;
72584;SDS011;60618;40.084;32.908;2022-11-23T14:46:57;32.90;;;6.53;;
72584;SDS011;60618;40.084;32.908;2022-11-23T14:49:25;28.23;;;5.20;;
72584;SDS011;60618;40.084;32.908;2022-11-23T14:51:52;23.33;;;5.28;;
72584;SDS011;60618;40.084;32.908;2022-11-23T14:54:19;26.27;;;5.55;;
72584;SDS011;60618;40.084;32.908;2022-11-23T14:56:47;31.25;;;5.13;;
72584;SDS011;60618;40.084;32.908;2022-11-23T15:01:52;29.08;;;5.40;;
72584;SDS011;60618;40.084;32.908;2022-11-23T15:04:27;29.33;;;6.10;;
72584;SDS011;60618;40.084;32.908;2022-11-23T15:06:57;31.75;;;5.10;;
72584;SDS011;60618;40.084;32.908;2022-11-23T15:12:18;17.73;;;5.30;;
72584;SDS011;60618;40.084;32.908;2022-11-23T15:14:54;21.15;;;5.55;;
72584;SDS011;60618;40.084;32.908;2022-11-23T15:17:22;22.50;;;5.05;;
72584;SDS011;60618;40.084;32.908;2022-11-23T15:19:56;23.88;;;5.40;;
72584;SDS011;60618;40.084;32.908;2022-11-23T15:22:27;23.35;;;5.93;;
72584;SDS011;60618;40.084;32.908;2022-11-23T15:25:03;24.27;;;6.40;;
72584;SDS011;60618;40.084;32.908;2022-11-23T15:27:31;23.52;;;6.10;;
72584;SDS011;60618;40.084;32.908;2022-11-23T15:29:59;24.58;;;7.20;;
72584;SDS011;60618;40.084;32.908;2022-11-23T15:32:27;28.90;;;7.43;;
72584;SDS011;60618;40.084;32.908;2022-11-23T15:35:00;34.15;;;9.05;;
72584;SDS011;60618;40.084;32.908;2022-11-23T15:37:30;28.53;;;9.20;;
72584;SDS011;60618;40.084;32.908;2022-11-23T15:40:00;32.92;;;9.73;;
72584;SDS011;60618;40.084;32.908;2022-11-23T15:42:27;28.67;;;9.25;;
72584;SDS011;60618;40.084;32.908;2022-11-23T15:44:54;25.65;;;9.82;;
72584;SDS011;60618;40.084;32.908;2022-11-23T15:47:23;30.60;;;10.07;;
72584;SDS011;60618;40.084;32.908;2022-11-23T15:49:55;30.87;;;10.13;;
72584;SDS011;60618;40.084;32.908;2022-11-23T15:52:27;33.78;;;10.90;;
72584;SDS011;60618;40.084;32.908;2022-11-23T15:55:00;28.45;;;10.23;;
72584;SDS011;60618;40.084;32.908;2022-11-23T15:57:38;30.45;;;10.23;;
72584;SDS011;60618;40.084;32.908;2022-11-23T16:00:06;28.42;;;10.75;;
72584;SDS011;60618;40.084;32.908;2022-11-23T16:02:34;29.67;;;10.93;;
72584;SDS011;60618;40.084;32.908;2022-11-23T16:05:02;33.67;;;11.35;;
72584;SDS011;60618;40.084;32.908;2022-11-23T16:07:31;29.65;;;10.90;;
72584;SDS011;60618;40.084;32.908;2022-11-23T16:12:49;28.25;;;10.85;;
72584;SDS011;60618;40.084;32.908;2022-11-23T16:18:02;30.92;;;10.82;;
72584;SDS011;60618;40.084;32.908;2022-11-23T16:20:59;30.38;;;10.32;;
72584;SDS011;60618;40.084;32.908;2022-11-23T16:26:13;25.55;;;10.25;;
72584;SDS011;60618;40.084;32.908;2022-11-23T16:28:52;29.40;;;10.47;;
72584;SDS011;60618;40.084;32.908;2022-11-23T16:31:27;36.30;;;11.35;;
72584;SDS011;60618;40.084;32.908;2022-11-23T16:34:09;36.08;;;12.43;;
72584;SDS011;60618;40.084;32.908;2022-11-23T16:36:43;28.67;;;11.18;;
72584;SDS011;60618;40.084;32.908;2022-11-23T16:39:11;25.52;;;12.27;;
72584;SDS011;60618;40.084;32.908;2022-11-23T16:41:38;26.57;;;10.47;;
72584;SDS011;60618;40.084;32.908;2022-11-23T16:44:05;29.90;;;11.48;;
72584;SDS011;60618;40.084;32.908;2022-11-23T16:46:32;30.50;;;11.50;;
72584;SDS011;60618;40.084;32.908;2022-11-23T16:49:03;33.42;;;11.82;;
72584;SDS011;60618;40.084;32.908;2022-11-23T16:51:30;30.98;;;11.35;;
72584;SDS011;60618;40.084;32.908;2022-11-23T16:53:56;27.80;;;11.73;;
72584;SDS011;60618;40.084;32.908;2022-11-23T16:56:43;20.98;;;9.85;;
72584;SDS011;60618;40.084;32.908;2022-11-23T16:59:19;31.20;;;11.82;;
72584;SDS011;60618;40.084;32.908;2022-11-23T17:01:46;29.92;;;12.52;;
72584;SDS011;60618;40.084;32.908;2022-11-23T17:04:22;24.88;;;10.95;;
72584;SDS011;60618;40.084;32.908;2022-11-23T17:06:49;25.30;;;11.37;;
72584;SDS011;60618;40.084;32.908;2022-11-23T17:09:16;31.20;;;14.10;;
72584;SDS011;60618;40.084;32.908;2022-11-23T17:11:46;38.65;;;14.98;;
72584;SDS011;60618;40.084;32.908;2022-11-23T17:14:19;30.35;;;14.00;;
72584;SDS011;60618;40.084;32.908;2022-11-23T17:16:53;30.08;;;13.60;;
72584;SDS011;60618;40.084;32.908;2022-11-23T17:19:20;28.03;;;13.03;;
72584;SDS011;60618;40.084;32.908;2022-11-23T17:21:49;50.30;;;18.80;;
72584;SDS011;60618;40.084;32.908;2022-11-23T17:24:16;58.10;;;23.48;;
72584;SDS011;60618;40.084;32.908;2022-11-23T17:26:44;36.78;;;16.23;;